Time;durP1;ratioP1;P1;durP2;ratioP2;P2;SDS_P1;SDS_P2;PMS_P1;PMS_P2;Temp;Humidity;BMP_temperature;BMP_pressure;BME280_temperature;BME280_humidity;BME280_pressure;Samples;Min_cycle;Max_cycle;Signal;HPM_P1;HPM_P2
2023/07/09 00:01:56;;;;;;;1.73;1.30;;;;;;;17.94;69.58;100057.44;5076579;28;20063;-59
2023/07/09 00:04:28;;;;;;;5.53;1.08;;;;;;;18.11;68.83;100054.41;5076509;28;20045;-59
2023/07/09 00:07:02;;;;;;;1.17;0.90;;;;;;;18.29;68.48;100047.91;5077139;28;20544;-59
2023/07/09 00:09:31;;;;;;;0.90;0.90;;;;;;;18.43;67.92;100040.63;5076327;28;20132;-59
2023/07/09 00:12:00;;;;;;;1.52;1.42;;;;;;;18.51;67.74;100049.06;5076420;28;20086;-59
2023/07/09 00:14:29;;;;;;;0.65;0.63;;;;;;;18.51;67.77;100044.75;5075422;28;20533;-59
2023/07/09 00:16:58;;;;;;;0.95;0.85;;;;;;;18.56;67.48;100053.25;5076350;28;20075;-59
2023/07/09 00:19:29;;;;;;;3.60;1.03;;;;;;;18.59;67.08;100053.16;5076195;28;20061;-59
2023/07/09 00:21:58;;;;;;;1.58;1.48;;;;;;;18.60;66.73;100044.50;5087278;28;20131;-59
2023/07/09 00:24:28;;;;;;;0.63;0.63;;;;;;;18.59;66.77;100048.00;5096404;28;20040;-59
2023/07/09 00:26:58;;;;;;;0.70;0.70;;;;;;;18.58;66.48;100056.63;5096398;28;20368;-59
2023/07/09 00:29:27;;;;;;;1.58;1.25;;;;;;;18.60;66.43;100054.84;5096214;28;20060;-59
2023/07/09 00:31:56;;;;;;;0.80;0.80;;;;;;;18.64;66.33;100051.28;5078507;28;20071;-59
2023/07/09 00:34:25;;;;;;;1.55;1.20;;;;;;;18.53;66.64;100053.31;5096158;28;20040;-59
2023/07/09 00:36:55;;;;;;;1.10;0.93;;;;;;;18.36;67.05;100055.47;5096181;28;20123;-59
2023/07/09 00:39:25;;;;;;;1.42;1.33;;;;;;;18.21;67.62;100053.28;5078369;28;20123;-59
2023/07/09 00:41:53;;;;;;;2.38;1.95;;;;;;;18.29;67.46;100047.91;5096380;28;20097;-59
2023/07/09 00:44:30;;;;;;;1.25;1.15;;;;;;;18.27;67.47;100045.38;5095948;28;20497;-59
2023/07/09 00:47:20;;;;;;;1.17;1.08;;;;;;;18.14;67.86;100053.50;5096076;28;20052;-59
2023/07/09 00:49:49;;;;;;;1.35;1.10;;;;;;;18.04;68.30;100058.88;5078180;28;20067;-59
2023/07/09 00:52:29;;;;;;;0.50;0.50;;;;;;;18.09;68.10;100061.38;5095914;28;20131;-59
2023/07/09 00:55:04;;;;;;;1.00;0.68;;;;;;;18.05;67.66;100050.25;5078156;28;20044;-59
2023/07/09 00:57:41;;;;;;;0.50;0.50;;;;;;;18.08;67.75;100055.34;5095816;28;20105;-59
2023/07/09 01:00:15;;;;;;;0.45;0.45;;;;;;;18.13;67.55;100052.63;5078213;28;20477;-59
2023/07/09 01:02:48;;;;;;;0.50;0.50;;;;;;;18.20;67.19;100056.75;5077783;28;20044;-59
2023/07/09 01:05:19;;;;;;;0.47;0.47;;;;;;;18.20;67.16;100053.31;5077947;28;20141;-59
2023/07/09 01:07:53;;;;;;;0.85;0.85;;;;;;;18.16;67.26;100052.56;5095981;28;20093;-59
2023/07/09 01:10:22;;;;;;;1.08;0.90;;;;;;;18.15;67.68;100048.28;5095455;28;20045;-59
2023/07/09 01:12:51;;;;;;;1.10;0.77;;;;;;;18.09;67.85;100046.69;5077873;28;20123;-59
2023/07/09 01:15:20;;;;;;;1.50;1.15;;;;;;;17.85;68.04;100041.31;5077342;28;20063;-59
2023/07/09 01:17:53;;;;;;;2.80;1.00;;;;;;;17.68;69.06;100054.63;5095377;28;20118;-59
2023/07/09 01:20:23;;;;;;;1.80;1.70;;;;;;;17.44;69.66;100055.16;5095140;28;20047;-59
2023/07/09 01:22:56;;;;;;;1.27;1.02;;;;;;;17.37;69.82;100054.41;5095346;28;20466;-59
2023/07/09 01:25:29;;;;;;;1.85;1.15;;;;;;;17.17;70.62;100051.44;5095211;28;20048;-59
2023/07/09 01:27:59;;;;;;;1.50;0.82;;;;;;;16.97;71.13;100048.44;5095277;28;20458;-59
2023/07/09 01:30:33;;;;;;;0.70;0.70;;;;;;;16.89;71.80;100050.34;5095200;28;20036;-59
2023/07/09 01:33:02;;;;;;;5.97;1.30;;;;;;;16.95;71.98;100050.19;5077099;28;20067;-59
2023/07/09 01:35:33;;;;;;;9.32;2.13;;;;;;;17.07;71.64;100060.25;5076962;28;20051;-59
2023/07/09 01:38:06;;;;;;;1.60;1.48;;;;;;;17.01;71.60;100052.63;5076964;28;20052;-59
2023/07/09 01:40:37;;;;;;;1.13;1.05;;;;;;;17.06;71.85;100052.56;5094972;28;20489;-59
2023/07/09 01:43:07;;;;;;;0.90;0.85;;;;;;;17.16;71.42;100056.63;5077164;28;20126;-59
2023/07/09 01:45:37;;;;;;;4.75;2.05;;;;;;;17.08;71.27;100056.81;5076894;28;20040;-59
2023/07/09 01:48:14;;;;;;;2.60;2.08;;;;;;;16.98;71.40;100050.13;5094841;28;20497;-59
2023/07/09 01:50:44;;;;;;;1.15;1.10;;;;;;;17.07;71.53;100055.09;5094744;28;20040;-59
2023/07/09 01:53:16;;;;;;;;;;;;;;;17.14;71.16;100056.66;5095680;28;20052;-59
2023/07/09 01:55:45;;;;;;;0.88;0.85;;;;;;;17.26;70.88;100066.72;5094993;28;19927;-59
2023/07/09 01:58:16;;;;;;;0.50;0.50;;;;;;;17.32;70.33;100065.75;5076967;28;20375;-59
2023/07/09 02:00:45;;;;;;;1.77;1.42;;;;;;;17.39;70.16;100068.16;5076564;28;20489;-59
2023/07/09 02:03:16;;;;;;;;;;;;;;;17.40;69.78;100075.00;5095235;28;20048;-59
2023/07/09 02:05:46;;;;;;;0.77;0.68;;;;;;;17.41;69.72;100066.38;5094519;28;19928;-59
2023/07/09 02:08:17;;;;;;;0.70;0.70;;;;;;;17.43;69.53;100074.09;5094747;28;20060;-59
2023/07/09 02:10:49;;;;;;;0.50;0.50;;;;;;;17.45;69.39;100067.16;5093703;28;20489;-59
2023/07/09 02:13:18;;;;;;;0.80;0.80;;;;;;;17.43;69.20;100069.78;5094688;28;20379;-59
2023/07/09 02:15:47;;;;;;;2.97;1.35;;;;;;;17.48;69.17;100073.97;5094654;28;20097;-59
2023/07/09 02:18:16;;;;;;;0.85;0.85;;;;;;;17.44;68.85;100062.91;5076135;28;20497;-59
2023/07/09 02:20:47;;;;;;;0.60;0.60;;;;;;;17.44;68.77;100068.88;5094106;28;20119;-59
2023/07/09 02:23:17;;;;;;;0.68;0.68;;;;;;;17.50;68.69;100069.63;5076203;28;20123;-59
2023/07/09 02:25:47;;;;;;;0.52;0.52;;;;;;;17.46;68.65;100079.19;5095297;28;20067;-59
2023/07/09 02:28:16;;;;;;;1.27;1.02;;;;;;;17.42;68.69;100073.22;5094151;28;20054;-59
2023/07/09 02:30:46;;;;;;;0.70;0.70;;;;;;;17.31;69.18;100080.38;5094227;28;20036;-59
2023/07/09 02:33:15;;;;;;;0.70;0.70;;;;;;;17.21;69.42;100086.59;5076206;28;20040;-59
2023/07/09 02:35:43;;;;;;;0.50;0.50;;;;;;;17.07;70.05;100083.47;5093997;28;20040;-59
2023/07/09 02:38:12;;;;;;;4.00;1.23;;;;;;;16.99;70.28;100082.75;5076199;28;20052;-59
2023/07/09 02:40:43;;;;;;;;;;;;;;;16.94;70.53;100076.03;5094624;28;20115;-59
2023/07/09 02:43:12;;;;;;;1.50;1.40;;;;;;;17.00;70.68;100081.91;5093364;28;20010;-59
2023/07/09 02:45:41;;;;;;;0.70;0.70;;;;;;;17.03;70.66;100089.59;5076107;28;20050;-59
2023/07/09 02:48:10;;;;;;;0.65;0.65;;;;;;;17.09;70.42;100086.84;5076076;28;20040;-59
2023/07/09 02:50:41;;;;;;;0.82;0.82;;;;;;;17.14;70.22;100087.63;5094005;28;20519;-59
2023/07/09 02:53:10;;;;;;;1.27;1.17;;;;;;;17.15;69.76;100091.91;5093752;28;20039;-59
2023/07/09 02:55:39;;;;;;;0.70;0.70;;;;;;;17.00;70.30;100088.78;5076097;28;20040;-59
2023/07/09 02:58:09;;;;;;;0.73;0.73;;;;;;;16.86;70.79;100103.69;5075686;28;20127;-59
2023/07/09 03:00:38;;;;;;;0.52;0.52;;;;;;;16.70;70.99;100095.38;5094074;28;20569;-59
2023/07/09 03:03:07;;;;;;;1.90;1.17;;;;;;;16.59;71.34;100098.16;5075606;28;20452;-59
2023/07/09 03:05:37;;;;;;;1.00;0.85;;;;;;;16.52;72.01;100099.16;5075688;28;20131;-59
2023/07/09 03:08:08;;;;;;;0.63;0.63;;;;;;;16.45;71.99;100091.53;5093913;28;20056;-59
2023/07/09 03:10:36;;;;;;;0.60;0.60;;;;;;;16.43;72.49;100095.88;5093459;28;20068;-59
2023/07/09 03:13:05;;;;;;;0.70;0.70;;;;;;;16.52;72.47;100100.88;5093597;28;20068;-59
2023/07/09 03:15:36;;;;;;;1.23;1.13;;;;;;;16.68;71.99;100103.13;5093537;28;20036;-59
2023/07/09 03:18:05;;;;;;;1.15;0.60;;;;;;;16.80;71.86;100107.22;5093830;28;20567;-59
2023/07/09 03:20:34;;;;;;;1.80;1.42;;;;;;;16.91;71.19;100113.03;5093358;28;20406;-59
2023/07/09 03:23:04;;;;;;;0.98;0.85;;;;;;;16.93;71.03;100111.28;5078941;28;20032;-59
2023/07/09 03:25:33;;;;;;;12.40;0.80;;;;;;;16.92;71.19;100113.84;5097892;28;20105;-59
2023/07/09 03:28:02;;;;;;;0.60;0.60;;;;;;;16.88;71.27;100110.50;5097604;28;20106;-59
2023/07/09 03:30:31;;;;;;;1.07;0.60;;;;;;;16.90;71.33;100107.88;5097376;28;20040;-59
2023/07/09 03:33:04;;;;;;;0.67;0.67;;;;;;;16.87;71.33;100107.97;5079725;28;20054;-59
2023/07/09 03:35:34;;;;;;;1.13;1.05;;;;;;;16.76;71.70;100108.16;5097427;28;20355;-59
2023/07/09 03:38:03;;;;;;;1.60;1.48;;;;;;;16.69;71.75;100114.31;5097968;28;20097;-59
2023/07/09 03:40:32;;;;;;;3.10;0.98;;;;;;;16.71;72.18;100107.41;5097277;28;20491;-59
2023/07/09 03:43:01;;;;;;;6.38;0.90;;;;;;;16.73;71.97;100113.38;5097814;28;20441;-59
2023/07/09 03:45:31;;;;;;;0.57;0.57;;;;;;;16.72;72.24;100109.09;5097219;28;20044;-59
2023/07/09 03:48:02;;;;;;;1.27;1.10;;;;;;;16.79;72.25;100108.09;5097204;28;20131;-59
2023/07/09 03:50:31;;;;;;;0.80;0.80;;;;;;;16.94;71.81;100107.78;5097042;28;20527;-59
2023/07/09 03:53:01;;;;;;;0.80;0.80;;;;;;;17.02;71.58;100103.34;5097406;28;20486;-59
2023/07/09 03:55:29;;;;;;;;;;;;;;;17.13;70.83;100106.53;5097371;28;20052;-59
2023/07/09 03:57:58;;;;;;;0.85;0.82;;;;;;;17.19;70.52;100105.56;5097034;28;19927;-59
2023/07/09 04:00:27;;;;;;;1.13;1.02;;;;;;;17.24;70.60;100106.34;5096984;28;20058;-59
2023/07/09 04:02:57;;;;;;;1.77;1.23;;;;;;;17.28;70.35;100095.91;5097162;28;20040;-59
2023/07/09 04:05:28;;;;;;;1.25;0.88;;;;;;;17.38;70.08;100106.88;5096822;28;20043;-59
2023/07/09 04:07:57;;;;;;;0.50;0.50;;;;;;;17.46;70.19;100110.16;5097100;28;20106;-59
2023/07/09 04:10:26;;;;;;;0.60;0.60;;;;;;;17.50;70.15;100105.75;5096693;28;20055;-59
2023/07/09 04:12:55;;;;;;;0.60;0.60;;;;;;;17.58;69.90;100111.66;5096601;28;20088;-59
2023/07/09 04:15:24;;;;;;;1.43;1.00;;;;;;;17.70;69.66;100103.63;5096581;28;20512;-60
2023/07/09 04:17:53;;;;;;;0.82;0.80;;;;;;;17.79;69.42;100108.56;5096647;28;20032;-60
2023/07/09 04:20:23;;;;;;;1.43;1.30;;;;;;;17.89;69.26;100098.00;5096466;28;20040;-59
2023/07/09 04:22:54;;;;;;;1.02;0.95;;;;;;;18.00;68.91;100102.91;5096755;28;20139;-60
2023/07/09 04:25:23;;;;;;;1.27;1.13;;;;;;;18.06;68.60;100102.78;5096541;28;20059;-60
2023/07/09 04:27:51;;;;;;;0.75;0.70;;;;;;;18.13;68.14;100109.47;5096692;28;20044;-60
2023/07/09 04:30:20;;;;;;;1.13;0.90;;;;;;;18.26;68.07;100100.53;5096594;28;20028;-59
2023/07/09 04:32:49;;;;;;;0.73;0.70;;;;;;;18.37;68.23;100103.69;5096204;28;20048;-59
2023/07/09 04:35:18;;;;;;;1.00;0.95;;;;;;;18.45;67.99;100112.09;5095588;28;20078;-60
2023/07/09 04:37:47;;;;;;;0.97;0.87;;;;;;;18.51;67.94;100111.97;5096217;28;20051;-59
2023/07/09 04:40:19;;;;;;;2.08;0.80;;;;;;;18.59;67.76;100110.06;5096162;28;20316;-60
2023/07/09 04:42:48;;;;;;;0.73;0.73;;;;;;;18.73;67.48;100112.25;5096423;28;20052;-60
2023/07/09 04:45:17;;;;;;;0.82;0.77;;;;;;;18.85;67.06;100108.50;5096424;28;20036;-60
2023/07/09 04:47:46;;;;;;;1.65;1.15;;;;;;;18.98;66.56;100107.28;5096610;28;20489;-60
2023/07/09 04:50:15;;;;;;;1.10;0.70;;;;;;;19.13;65.67;100112.84;5095926;28;20493;-60
2023/07/09 04:52:44;;;;;;;1.23;0.85;;;;;;;19.23;65.92;100114.28;5095829;28;20128;-60
2023/07/09 04:55:13;;;;;;;1.23;0.80;;;;;;;19.42;65.41;100112.03;5095877;28;20036;-60
2023/07/09 04:57:44;;;;;;;0.75;0.75;;;;;;;19.56;65.11;100112.47;5095862;28;20451;-61
2023/07/09 05:00:14;;;;;;;2.33;1.27;;;;;;;19.70;64.64;100115.47;5095824;28;20060;-60
2023/07/09 05:02:43;;;;;;;1.20;1.10;;;;;;;19.79;64.15;100110.03;5096306;28;20055;-60
2023/07/09 05:05:12;;;;;;;1.48;0.90;;;;;;;19.87;63.87;100108.03;5095957;28;20074;-60
2023/07/09 05:07:42;;;;;;;2.42;1.05;;;;;;;20.04;63.40;100110.94;5096025;28;20032;-60
2023/07/09 05:10:11;;;;;;;0.50;0.50;;;;;;;20.15;62.87;100113.19;5095575;28;20085;-60
2023/07/09 05:12:51;;;;;;;0.88;0.85;;;;;;;20.29;62.53;100115.34;5095531;28;20051;-60
2023/07/09 05:15:22;;;;;;;5.35;1.52;;;;;;;20.46;61.93;100113.03;5095512;28;20048;-60
2023/07/09 05:17:51;;;;;;;0.70;0.70;;;;;;;20.53;61.62;100109.34;5077741;28;20044;-60
2023/07/09 05:20:21;;;;;;;0.98;0.90;;;;;;;20.64;61.47;100117.56;5095110;28;20044;-60
2023/07/09 05:22:50;;;;;;;0.75;0.75;;;;;;;20.68;61.11;100114.00;5095342;28;20131;-60
2023/07/09 05:25:19;;;;;;;0.98;0.95;;;;;;;20.74;60.88;100113.78;5095559;28;20063;-60
2023/07/09 05:27:49;;;;;;;0.73;0.73;;;;;;;20.82;60.96;100116.94;5095510;28;20458;-60
2023/07/09 05:30:18;;;;;;;0.98;0.85;;;;;;;20.88;60.30;100111.53;5095199;28;20048;-60
2023/07/09 05:32:47;;;;;;;4.72;0.88;;;;;;;20.95;60.13;100112.16;5095321;28;20553;-60
2023/07/09 05:35:16;;;;;;;0.60;0.60;;;;;;;21.06;59.95;100110.91;5094989;28;20119;-60
2023/07/09 05:37:45;;;;;;;0.65;0.65;;;;;;;21.17;59.76;100108.75;5095009;28;20094;-60
2023/07/09 05:40:14;;;;;;;0.77;0.77;;;;;;;21.28;59.52;100111.78;5094991;28;20067;-60
2023/07/09 05:42:43;;;;;;;0.43;0.43;;;;;;;21.38;59.02;100101.91;5094986;28;20478;-61
2023/07/09 05:45:14;;;;;;;1.40;0.93;;;;;;;21.46;58.86;100109.41;5094908;28;20493;-60
2023/07/09 05:47:43;;;;;;;0.60;0.60;;;;;;;21.58;58.74;100116.72;5076851;28;20493;-60
2023/07/09 05:50:12;;;;;;;8.00;1.67;;;;;;;21.70;58.88;100122.31;5094789;28;20122;-60
2023/07/09 05:52:41;;;;;;;;;;;;;;;21.86;58.46;100113.03;5095169;28;20036;-60
2023/07/09 05:55:10;;;;;;;0.65;0.65;;;;;;;21.96;58.46;100110.91;5094659;28;20002;-60
2023/07/09 05:57:39;;;;;;;0.40;0.40;;;;;;;22.21;58.43;100122.00;5076768;28;20043;-60
2023/07/09 06:00:09;;;;;;;1.85;0.95;;;;;;;22.39;58.26;100103.03;5094970;28;20048;-60
2023/07/09 06:02:46;;;;;;;0.65;0.65;;;;;;;22.57;57.59;100109.22;5094901;28;20124;-60
2023/07/09 06:05:16;;;;;;;4.38;1.13;;;;;;;22.71;56.93;100111.25;5094465;28;20044;-61
2023/07/09 06:07:45;;;;;;;0.43;0.43;;;;;;;22.84;55.95;100112.41;5095065;28;20123;-60
2023/07/09 06:10:15;;;;;;;0.77;0.77;;;;;;;22.96;55.39;100104.06;5094721;28;20059;-61
2023/07/09 06:12:44;;;;;;;0.75;0.75;;;;;;;23.12;54.39;100103.31;5094704;28;20048;-60
2023/07/09 06:15:13;;;;;;;0.60;0.60;;;;;;;23.26;53.82;100108.72;5094294;28;20075;-61
2023/07/09 11:22:42;;;;;;;0.50;0.50;;;;;;;32.29;30.93;100015.34;5132893;27;20705;-63
2023/07/09 11:25:15;;;;;;;0.80;0.80;;;;;;;32.11;31.28;100004.53;5132205;27;20384;-63
2023/07/09 11:27:51;;;;;;;3.45;1.42;;;;;;;32.04;32.09;100005.16;5132212;27;20050;-63
2023/07/09 11:30:24;;;;;;;0.65;0.65;;;;;;;32.12;32.80;100010.66;5131879;27;20054;-63
2023/07/09 11:32:55;;;;;;;1.58;1.45;;;;;;;32.17;31.74;99997.88;5131896;27;20488;-63
2023/07/09 11:35:48;;;;;;;0.87;0.73;;;;;;;32.43;31.65;99999.13;5131831;27;20043;-63
2023/07/09 11:38:23;;;;;;;0.70;0.70;;;;;;;32.85;32.89;99995.41;5131605;27;20291;-63
2023/07/09 11:40:53;;;;;;;0.60;0.60;;;;;;;32.90;31.24;99998.50;5131944;28;20046;-64
2023/07/09 11:43:33;;;;;;;0.60;0.60;;;;;;;33.09;31.51;99998.59;5131608;27;20055;-62
2023/07/09 11:46:12;;;;;;;2.58;1.33;;;;;;;33.19;29.97;99982.72;5131641;27;20126;-63
2023/07/09 11:48:42;;;;;;;0.65;0.65;;;;;;;33.19;28.84;99992.47;5131919;27;20123;-63
2023/07/09 11:51:18;;;;;;;0.52;0.52;;;;;;;33.22;28.87;99987.75;5130370;28;20071;-64
2023/07/09 11:53:52;;;;;;;1.08;0.77;;;;;;;33.34;29.15;99975.22;5131467;27;20123;-64
2023/07/09 11:56:23;;;;;;;0.77;0.60;;;;;;;33.13;29.13;99982.44;5131355;27;20051;-63
2023/07/09 11:58:53;;;;;;;0.98;0.88;;;;;;;32.79;29.26;99974.81;5131386;27;20500;-63
2023/07/09 12:01:25;;;;;;;0.55;0.55;;;;;;;32.50;30.81;99973.88;5131485;27;20048;-63
2023/07/09 12:03:57;;;;;;;0.47;0.47;;;;;;;32.61;31.50;99971.13;5131233;27;20043;-63
2023/07/09 12:06:29;;;;;;;0.40;0.40;;;;;;;33.02;32.14;99976.28;5131253;27;20450;-63
2023/07/09 12:09:01;;;;;;;0.75;0.75;;;;;;;33.28;32.37;99970.50;5131135;27;20044;-63
2023/07/09 12:11:34;;;;;;;5.78;1.02;;;;;;;33.47;32.17;99965.19;5131162;27;20058;-64
2023/07/09 12:14:04;;;;;;;1.27;0.90;;;;;;;33.61;31.39;99957.69;5130989;27;20047;-63
2023/07/09 12:16:36;;;;;;;1.08;1.02;;;;;;;33.73;31.19;99967.16;5130946;27;20108;-63
2023/07/09 12:19:06;;;;;;;0.60;0.60;;;;;;;33.87;31.58;99963.22;5130975;27;20051;-63
2023/07/09 12:21:39;;;;;;;0.65;0.60;;;;;;;33.71;30.30;99957.69;5130526;27;20058;-63
2023/07/09 12:24:21;;;;;;;1.23;0.98;;;;;;;33.93;31.08;99962.66;5130945;27;20492;-63
2023/07/09 12:26:53;;;;;;;0.55;0.55;;;;;;;34.06;30.75;99957.91;5131063;27;20437;-63
2023/07/09 12:29:26;;;;;;;0.50;0.50;;;;;;;33.81;29.61;99947.88;5130817;27;20122;-63
2023/07/09 12:31:57;;;;;;;0.88;0.85;;;;;;;33.57;30.08;99950.19;5129459;27;20040;-63
2023/07/09 12:34:28;;;;;;;0.57;0.57;;;;;;;33.33;30.32;99957.69;5117040;28;20043;-63
2023/07/09 12:36:57;;;;;;;0.40;0.40;;;;;;;33.35;30.31;99953.06;5117187;28;20043;-63
2023/07/09 12:39:30;;;;;;;;;;;;;;;33.60;31.43;99942.78;5117147;28;20046;-63
2023/07/09 12:42:03;;;;;;;2.60;0.88;;;;;;;33.67;30.08;99940.38;5116883;28;19919;-63
2023/07/09 12:44:37;;;;;;;0.57;0.57;;;;;;;33.93;30.66;99935.34;5117174;28;20058;-63
2023/07/09 12:47:07;;;;;;;0.60;0.57;;;;;;;34.11;30.66;99934.47;5117049;27;20388;-63
2023/07/09 12:49:41;;;;;;;0.70;0.70;;;;;;;34.11;29.83;99934.47;5116689;28;20085;-63
2023/07/09 12:52:17;;;;;;;0.68;0.63;;;;;;;33.90;28.96;99930.31;5116959;28;20047;-64
2023/07/09 12:54:57;;;;;;;0.52;0.52;;;;;;;33.88;28.53;99932.28;5116938;28;20047;-63
2023/07/09 12:57:28;;;;;;;0.63;0.63;;;;;;;33.95;28.61;99928.91;5116801;28;20043;-63
2023/07/09 12:59:58;;;;;;;0.70;0.70;;;;;;;33.86;28.72;99927.09;5116442;28;20139;-63
2023/07/09 13:02:28;;;;;;;1.27;0.80;;;;;;;33.73;29.25;99919.47;5116590;28;20047;-63
2023/07/09 13:05:04;;;;;;;0.60;0.60;;;;;;;33.81;29.07;99929.34;5116673;28;20043;-62
2023/07/09 13:07:38;;;;;;;0.50;0.50;;;;;;;33.86;29.41;99926.28;5116236;28;20037;-63
2023/07/09 13:10:18;;;;;;;0.50;0.50;;;;;;;33.72;28.18;99916.97;5116275;28;20122;-64
2023/07/09 13:12:50;;;;;;;0.95;0.85;;;;;;;33.60;27.66;99916.28;5116268;27;20047;-63
2023/07/09 13:15:30;;;;;;;0.73;0.73;;;;;;;33.64;27.79;99914.22;5116196;28;20044;-63
2023/07/09 13:18:02;;;;;;;0.60;0.60;;;;;;;33.73;28.20;99913.34;5114937;28;20138;-63
2023/07/09 13:20:34;;;;;;;0.82;0.80;;;;;;;33.71;27.97;99917.97;5116211;28;20040;-63
2023/07/09 13:23:10;;;;;;;1.63;1.00;;;;;;;33.87;29.23;99904.94;5116194;28;20044;-63
2023/07/09 13:25:42;;;;;;;0.65;0.65;;;;;;;33.85;28.51;99906.91;5116291;28;20061;-63
2023/07/09 13:28:20;;;;;;;4.57;0.63;;;;;;;33.50;27.85;99915.44;5115935;28;20044;-63
2023/07/09 13:30:53;;;;;;;0.43;0.43;;;;;;;33.48;27.57;99908.59;5115941;28;20043;-63
2023/07/09 13:33:22;;;;;;;0.60;0.60;;;;;;;33.27;27.65;99906.13;5115109;28;20036;-63
2023/07/09 13:35:53;;;;;;;1.08;1.00;;;;;;;33.21;26.72;99911.13;5116041;28;20035;-63
2023/07/09 13:38:25;;;;;;;0.85;0.77;;;;;;;33.05;26.86;99906.38;5116085;28;20120;-63
2023/07/09 13:40:58;;;;;;;0.60;0.60;;;;;;;33.08;26.43;99906.97;5115714;28;20043;-63
2023/07/09 13:43:31;;;;;;;0.80;0.70;;;;;;;33.22;27.16;99902.22;5115387;28;20054;-63
2023/07/09 13:46:03;;;;;;;0.75;0.70;;;;;;;33.30;28.16;99902.34;5115269;28;20051;-63
2023/07/09 13:48:34;;;;;;;0.52;0.52;;;;;;;33.47;28.25;99891.06;5115624;28;20116;-63
2023/07/09 13:51:15;;;;;;;1.10;0.85;;;;;;;33.34;27.43;99896.63;5114723;28;20221;-63
2023/07/09 13:53:45;;;;;;;0.65;0.65;;;;;;;33.39;28.56;99898.84;5115482;28;20047;-63
2023/07/09 13:56:16;;;;;;;0.80;0.80;;;;;;;33.39;28.12;99888.28;5115566;28;20044;-63
2023/07/09 13:58:45;;;;;;;0.50;0.50;;;;;;;33.47;28.80;99893.72;5115672;28;20048;-62
2023/07/09 14:01:16;;;;;;;1.42;0.77;;;;;;;33.36;27.82;99888.53;5115277;28;20119;-63
2023/07/09 14:03:45;;;;;;;4.28;0.65;;;;;;;33.40;27.67;99896.06;5115270;28;20050;-64
2023/07/09 14:06:16;;;;;;;0.63;0.63;;;;;;;33.46;27.64;99899.97;5115503;28;20092;-62
2023/07/09 14:08:46;;;;;;;0.40;0.40;;;;;;;33.47;27.91;99901.66;5115513;27;20055;-63
2023/07/09 14:11:18;;;;;;;0.82;0.75;;;;;;;33.53;28.34;99899.28;5115350;28;20032;-64
2023/07/09 14:13:47;;;;;;;1.05;0.80;;;;;;;33.43;28.00;99894.94;5115078;28;20393;-63
2023/07/09 14:16:16;;;;;;;;;;;;;;;33.35;27.93;99887.72;5115728;28;20040;-63
2023/07/09 14:18:45;;;;;;;0.70;0.70;;;;;;;33.24;28.01;99889.66;5114959;27;19924;-63
2023/07/09 14:21:14;;;;;;;;;;;;;;;33.18;28.12;99882.31;5115048;28;20071;-63
2023/07/09 14:23:43;;;;;;;0.55;0.55;;;;;;;33.09;28.18;99887.44;5114817;28;19919;-63
2023/07/09 14:26:12;;;;;;;;;;;;;;;33.02;27.96;99890.78;5115278;28;20036;-63
2023/07/09 14:28:43;;;;;;;1.25;1.02;;;;;;;33.07;28.88;99896.50;5114780;28;20331;-63
2023/07/09 14:31:25;;;;;;;0.63;0.63;;;;;;;33.03;28.55;99887.16;5114704;28;20127;-64
2023/07/09 14:33:55;;;;;;;0.60;0.60;;;;;;;33.20;29.97;99883.00;5114974;28;20053;-63
2023/07/09 14:36:24;;;;;;;0.75;0.68;;;;;;;33.29;30.16;99882.13;5114594;28;20059;-63
2023/07/09 14:38:54;;;;;;;0.50;0.50;;;;;;;33.17;29.06;99877.97;5115427;28;20048;-63
2023/07/09 14:41:27;;;;;;;0.60;0.60;;;;;;;33.06;27.88;99892.19;5114785;28;20048;-63
2023/07/09 14:43:59;;;;;;;3.60;0.73;;;;;;;32.96;28.41;99884.22;5114396;28;20126;-63
2023/07/09 14:46:28;;;;;;;0.75;0.70;;;;;;;32.95;28.21;99884.34;5114489;28;20047;-63
2023/07/09 14:48:58;;;;;;;0.70;0.63;;;;;;;33.01;29.15;99889.09;5114423;28;20400;-63
2023/07/09 14:51:27;;;;;;;1.05;0.95;;;;;;;33.08;30.08;99875.19;5114304;28;20071;-63
2023/07/09 14:53:57;;;;;;;0.50;0.50;;;;;;;33.14;29.98;99878.28;5114258;28;20093;-62
2023/07/09 14:56:26;;;;;;;2.83;1.10;;;;;;;33.09;29.62;99871.56;5114053;28;20039;-62
2023/07/09 14:58:57;;;;;;;0.80;0.80;;;;;;;33.17;30.32;99872.69;5114269;28;20071;-62
2023/07/09 15:01:26;;;;;;;1.02;0.93;;;;;;;33.10;29.74;99859.19;5114484;28;20063;-62
2023/07/09 15:03:55;;;;;;;0.55;0.45;;;;;;;33.13;29.94;99866.00;5114426;28;20553;-63
2023/07/09 15:06:24;;;;;;;1.92;1.10;;;;;;;32.98;28.67;99869.03;5114523;28;20121;-62
2023/07/09 15:08:53;;;;;;;0.98;0.95;;;;;;;32.98;30.34;99876.97;5114136;28;20044;-63
2023/07/09 15:11:22;;;;;;;1.00;0.90;;;;;;;33.03;30.58;99876.59;5114079;28;20134;-63
2023/07/09 15:13:51;;;;;;;1.55;1.23;;;;;;;32.96;29.83;99881.56;5114050;28;20063;-63
2023/07/09 15:16:22;;;;;;;0.60;0.60;;;;;;;32.83;29.58;99874.84;5114099;28;20047;-62
2023/07/09 15:18:51;;;;;;;0.88;0.82;;;;;;;32.79;29.60;99874.31;5114006;28;20052;-63
2023/07/09 15:21:20;;;;;;;0.75;0.75;;;;;;;32.84;30.23;99872.09;5113860;28;20073;-61
2023/07/09 15:23:51;;;;;;;1.17;0.88;;;;;;;32.90;31.11;99871.53;5114035;28;20452;-62
2023/07/09 15:26:20;;;;;;;0.90;0.75;;;;;;;32.85;30.81;99868.47;5114250;28;20507;-62
2023/07/09 15:28:50;;;;;;;1.20;0.68;;;;;;;32.80;30.51;99865.38;5113943;28;20051;-62
2023/07/09 15:31:19;;;;;;;;;;;;;;;32.77;31.71;99865.69;5113290;28;20043;-62
2023/07/09 15:33:51;;;;;;;0.77;0.77;;;;;;;32.66;30.75;99857.03;5113906;28;19920;-62
2023/07/09 15:36:21;;;;;;;0.60;0.50;;;;;;;32.64;31.02;99862.44;5113912;28;20492;-62
2023/07/09 15:38:50;;;;;;;0.63;0.60;;;;;;;32.63;30.76;99858.16;5114515;28;20054;-62
2023/07/09 15:41:19;;;;;;;1.75;1.00;;;;;;;32.59;30.96;99864.66;5114121;28;20047;-62
2023/07/09 15:43:48;;;;;;;;;;;;;;;32.55;31.37;99860.63;5114459;28;20044;-63
2023/07/09 15:46:19;;;;;;;0.50;0.50;;;;;;;32.46;30.11;99856.13;5113745;28;20007;-62
2023/07/09 15:48:51;;;;;;;1.90;1.33;;;;;;;32.47;31.08;99849.84;5114048;28;20130;-62
2023/07/09 15:51:20;;;;;;;0.75;0.73;;;;;;;32.44;30.81;99852.78;5114142;28;20046;-62
2023/07/09 15:53:52;;;;;;;0.88;0.75;;;;;;;32.37;31.12;99851.66;5113691;28;20119;-62
2023/07/09 15:56:26;;;;;;;1.23;0.95;;;;;;;32.28;30.08;99844.53;5113693;28;20089;-62
2023/07/09 15:58:56;;;;;;;1.05;0.95;;;;;;;32.24;29.88;99843.13;5113963;28;20052;-62
2023/07/09 16:01:25;;;;;;;1.05;0.98;;;;;;;32.24;31.09;99851.91;5113560;28;20089;-62
2023/07/09 16:04:02;;;;;;;0.88;0.88;;;;;;;32.17;30.85;99839.34;5113588;28;20044;-62
2023/07/09 16:06:33;;;;;;;0.70;0.70;;;;;;;32.13;31.92;99843.25;5113657;28;20043;-62
2023/07/09 16:09:06;;;;;;;0.70;0.70;;;;;;;32.08;31.50;99845.44;5116763;28;20392;-62
2023/07/09 16:11:38;;;;;;;0.90;0.50;;;;;;;32.02;32.34;99840.69;5117435;28;20448;-62
2023/07/09 16:14:17;;;;;;;0.90;0.90;;;;;;;31.95;32.39;99836.88;5117408;28;20052;-62
2023/07/09 16:16:50;;;;;;;0.75;0.70;;;;;;;31.85;32.31;99835.97;5117697;28;20138;-62
2023/07/09 16:19:22;;;;;;;0.55;0.55;;;;;;;31.76;32.41;99829.69;5117593;28;20043;-62
2023/07/09 16:21:54;;;;;;;0.73;0.73;;;;;;;31.73;33.31;99835.22;5116996;28;20056;-62
2023/07/09 16:24:26;;;;;;;0.40;0.40;;;;;;;31.63;33.76;99829.06;5117092;28;20047;-62
2023/07/09 16:26:55;;;;;;;1.35;1.08;;;;;;;31.56;34.28;99828.75;5117199;28;20127;-62
2023/07/09 16:29:27;;;;;;;1.40;1.30;;;;;;;31.50;33.54;99829.28;5117036;28;20557;-62
2023/07/09 16:31:57;;;;;;;0.50;0.50;;;;;;;31.39;34.45;99831.09;5116034;28;20057;-62
2023/07/09 16:34:30;;;;;;;1.15;0.80;;;;;;;31.36;33.14;99826.91;5117622;28;20067;-62
2023/07/09 16:37:00;;;;;;;0.60;0.60;;;;;;;31.26;33.75;99826.03;5116936;28;20047;-61
2023/07/09 16:39:32;;;;;;;0.98;0.82;;;;;;;31.19;33.88;99824.88;5117189;28;20504;-62
2023/07/09 16:42:02;;;;;;;0.43;0.43;;;;;;;31.13;32.51;99815.66;5117181;28;20117;-63
2023/07/09 16:44:31;;;;;;;0.77;0.75;;;;;;;31.13;30.57;99820.94;5116667;28;20052;-62
2023/07/09 16:47:00;;;;;;;2.78;1.25;;;;;;;31.13;30.10;99820.94;5116789;28;20385;-62
2023/07/09 16:49:37;;;;;;;0.68;0.60;;;;;;;31.09;30.63;99832.72;5116944;28;20093;-62
2023/07/09 16:52:19;;;;;;;1.67;0.52;;;;;;;31.03;28.85;99824.47;5116696;28;20078;-63
2023/07/09 16:54:48;;;;;;;0.40;0.40;;;;;;;31.01;28.40;99821.13;5116650;28;20050;-62